Time;durP1;ratioP1;P1;durP2;ratioP2;P2;SDS_P1;SDS_P2;PMS_P1;PMS_P2;Temp;Humidity;BMP_temperature;BMP_pressure;BME280_temperature;BME280_humidity;BME280_pressure;Samples;Min_cycle;Max_cycle;Signal;HPM_P1;HPM_P2
2023/05/15 00:00:26;;;;;;;39.38;33.67;;;12.30;99.90;;;;;;5046583;28;20049;-65
2023/05/15 00:02:52;;;;;;;35.00;31.25;;;12.50;99.90;;;;;;5043503;28;20107;-65
2023/05/15 00:05:18;;;;;;;39.20;31.40;;;12.00;99.90;;;;;;5049369;28;20048;-65
2023/05/15 00:07:43;;;;;;;159.93;28.55;;;12.10;99.90;;;;;;5063570;28;20142;-65
2023/05/15 00:10:09;;;;;;;44.58;35.42;;;11.90;99.90;;;;;;5049811;28;20462;-66
2023/05/15 00:12:35;;;;;;;36.58;32.53;;;12.30;99.90;;;;;;5049687;28;20052;-65
2023/05/15 00:15:01;;;;;;;33.38;29.83;;;12.20;99.90;;;;;;5049613;28;20041;-65
2023/05/15 00:17:26;;;;;;;29.50;26.38;;;12.20;99.90;;;;;;5051582;28;20043;-65
2023/05/15 00:19:56;;;;;;;218.75;27.50;;;11.80;99.90;;;;;;5050473;28;20057;-66
2023/05/15 00:22:22;;;;;;;167.40;19.20;;;11.70;99.90;;;;;;5049834;28;20041;-66
2023/05/15 00:24:47;;;;;;;35.60;22.20;;;11.60;99.90;;;;;;5049504;28;20525;-65
2023/05/15 00:27:13;;;;;;;161.43;23.33;;;11.50;99.90;;;;;;5066281;28;20034;-65
2023/05/15 00:29:39;;;;;;;42.58;35.15;;;11.60;99.90;;;;;;5051231;28;20048;-66
2023/05/15 00:32:04;;;;;;;36.45;32.55;;;11.40;99.90;;;;;;5066070;28;20048;-65
2023/05/15 00:34:30;;;;;;;42.90;33.70;;;12.00;99.90;;;;;;5045878;28;20038;-65
2023/05/15 00:36:56;;;;;;;46.67;37.50;;;11.80;99.90;;;;;;5029416;28;20384;-65
2023/05/15 00:39:21;;;;;;;42.13;35.15;;;11.70;99.90;;;;;;5038879;28;20050;-65
2023/05/15 00:41:48;;;;;;;42.75;35.38;;;12.10;99.90;;;;;;5046909;28;20049;-65
2023/05/15 00:44:16;;;;;;;40.80;36.47;;;12.20;99.90;;;;;;5050076;28;20052;-65
2023/05/15 00:46:44;;;;;;;42.63;33.15;;;11.90;99.90;;;;;;5047917;28;20380;-66
2023/05/15 00:49:14;;;;;;;40.45;33.47;;;12.30;99.90;;;;;;5066041;28;20514;-65
2023/05/15 00:51:43;;;;;;;42.20;37.65;;;12.40;99.90;;;;;;5048933;28;20498;-65
2023/05/15 00:54:10;;;;;;;44.55;37.25;;;12.60;99.90;;;;;;5048928;28;20598;-66
2023/05/15 00:56:36;;;;;;;40.30;33.90;;;11.90;99.90;;;;;;5049088;28;20041;-65
2023/05/15 00:59:02;;;;;;;43.88;38.30;;;12.10;99.90;;;;;;5049043;28;20049;-66
2023/05/15 01:01:32;;;;;;;41.55;37.05;;;12.30;99.90;;;;;;5050422;28;20044;-65
2023/05/15 01:03:58;;;;;;;43.70;36.85;;;12.80;99.90;;;;;;5048784;28;20128;-66
2023/05/15 01:06:24;;;;;;;39.83;31.65;;;12.80;99.90;;;;;;5048281;28;20473;-65
2023/05/15 01:08:52;;;;;;;34.17;30.42;;;12.40;99.90;;;;;;5055950;28;20055;-66
2023/05/15 01:11:18;;;;;;;32.15;28.90;;;12.20;99.90;;;;;;5028783;28;20595;-65
2023/05/15 01:13:43;;;;;;;31.17;27.95;;;12.90;99.90;;;;;;5029206;28;20053;-66
2023/05/15 01:16:09;;;;;;;32.25;28.92;;;13.10;99.90;;;;;;5045452;28;20037;-65
2023/05/15 01:18:35;;;;;;;32.70;29.38;;;12.60;99.90;;;;;;5048279;28;20472;-66
2023/05/15 01:21:04;;;;;;;32.00;28.85;;;13.10;99.90;;;;;;5050024;28;20083;-66
2023/05/15 01:23:56;;;;;;;35.13;30.35;;;13.10;99.90;;;;;;5046169;28;20431;-66
2023/05/15 01:26:47;;;;;;;30.48;27.52;;;12.30;99.90;;;;;;5049213;28;20110;-65
2023/05/15 01:29:19;;;;;;;31.90;28.60;;;12.60;99.90;;;;;;5048772;28;20116;-66
2023/05/15 01:31:52;;;;;;;32.42;28.23;;;12.60;99.90;;;;;;5048247;28;20134;-65
2023/05/15 01:34:22;;;;;;;33.05;29.65;;;12.90;99.90;;;;;;5049640;28;20049;-66
2023/05/15 01:36:52;;;;;;;33.85;29.58;;;12.90;99.90;;;;;;5048700;28;20040;-66
2023/05/15 01:39:22;;;;;;;37.83;32.05;;;12.60;99.90;;;;;;5049220;28;20139;-66
2023/05/15 01:41:57;;;;;;;35.13;31.52;;;12.10;99.90;;;;;;5047204;28;20061;-65
2023/05/15 01:44:39;;;;;;;33.80;30.33;;;12.50;99.90;;;;;;5047528;28;20048;-66
2023/05/15 01:47:13;;;;;;;33.08;29.45;;;13.00;99.90;;;;;;5049775;28;20072;-66
2023/05/15 01:49:41;;;;;;;33.65;30.30;;;12.40;99.90;;;;;;5049527;28;20056;-66
2023/05/15 01:52:13;;;;;;;34.38;29.65;;;12.40;99.90;;;;;;5044798;28;20436;-65
2023/05/15 01:54:39;;;;;;;33.17;29.52;;;12.20;99.90;;;;;;5038863;28;20048;-66
2023/05/15 01:57:06;;;;;;;33.33;29.88;;;12.80;99.90;;;;;;5048073;28;20037;-66
2023/05/15 01:59:33;;;;;;;34.00;30.58;;;12.20;99.90;;;;;;5049794;28;20040;-65
2023/05/15 02:01:59;;;;;;;33.65;30.25;;;12.30;99.90;;;;;;5064247;28;20048;-65
2023/05/15 02:04:25;;;;;;;34.63;31.20;;;12.30;99.90;;;;;;5047634;28;20099;-66
2023/05/15 02:06:52;;;;;;;34.78;31.20;;;12.30;99.90;;;;;;5047257;28;20049;-65
2023/05/15 02:09:19;;;;;;;38.65;34.70;;;12.50;99.90;;;;;;5049280;28;20120;-66
2023/05/15 02:11:46;;;;;;;37.38;33.38;;;12.10;99.90;;;;;;5047763;28;20049;-65
2023/05/15 02:14:13;;;;;;;36.25;32.45;;;12.20;99.90;;;;;;5047675;28;20037;-65
2023/05/15 02:16:39;;;;;;;38.33;34.20;;;12.90;99.90;;;;;;5048773;28;20040;-66
2023/05/15 02:19:05;;;;;;;37.95;32.63;;;12.70;99.90;;;;;;5047729;28;20067;-65
2023/05/15 02:21:31;;;;;;;36.90;33.25;;;12.60;99.90;;;;;;5047931;28;20036;-66
2023/05/15 02:23:56;;;;;;;37.35;33.75;;;12.30;99.90;;;;;;5048710;28;20392;-66
2023/05/15 02:26:34;;;;;;;38.45;34.45;;;12.10;99.90;;;;;;5047920;28;20414;-65
2023/05/15 02:29:16;;;;;;;37.45;33.85;;;13.00;99.90;;;;;;5047689;28;20045;-66
2023/05/15 02:31:57;;;;;;;36.33;32.78;;;12.50;99.90;;;;;;5047325;28;20044;-65
2023/05/15 02:34:46;;;;;;;37.97;34.15;;;11.90;99.90;;;;;;5045218;28;20438;-65
2023/05/15 02:37:14;;;;;;;35.25;31.95;;;12.60;99.90;;;;;;5008825;28;20591;-65
2023/05/15 02:39:42;;;;;;;34.53;30.63;;;12.30;99.90;;;;;;5027564;28;20116;-66
2023/05/15 02:42:10;;;;;;;34.75;31.33;;;12.10;99.90;;;;;;5031156;28;20037;-66
2023/05/15 02:44:37;;;;;;;34.03;30.55;;;12.60;99.90;;;;;;5048407;28;20128;-66
2023/05/15 02:47:04;;;;;;;34.70;31.13;;;12.00;99.90;;;;;;5027181;28;20037;-66
2023/05/15 02:49:29;;;;;;;29.40;26.45;;;11.90;99.90;;;;;;5027615;28;20071;-66
2023/05/15 02:51:55;;;;;;;30.35;27.20;;;12.60;99.90;;;;;;5029289;28;20042;-66
2023/05/15 02:54:21;;;;;;;31.10;27.33;;;12.30;99.90;;;;;;5046614;28;20119;-65
2023/05/15 02:56:46;;;;;;;37.38;32.47;;;11.90;99.90;;;;;;5049093;28;20037;-66
2023/05/15 02:59:17;;;;;;;31.42;28.40;;;12.80;99.90;;;;;;5047566;28;20037;-65
2023/05/15 03:01:43;;;;;;;32.08;28.90;;;12.80;99.90;;;;;;5043757;28;20045;-66
2023/05/15 03:04:08;;;;;;;28.67;24.25;;;12.80;99.90;;;;;;5041171;28;20503;-66
2023/05/15 03:06:34;;;;;;;24.90;22.45;;;12.50;99.90;;;;;;5048765;28;20044;-65
2023/05/15 03:08:59;;;;;;;27.48;24.92;;;12.40;99.90;;;;;;5047463;28;20163;-65
2023/05/15 03:11:25;;;;;;;28.92;26.05;;;12.80;99.90;;;;;;5030780;28;20411;-65
2023/05/15 03:13:50;;;;;;;28.73;25.98;;;12.80;99.90;;;;;;5046609;28;20037;-66
2023/05/15 03:16:16;;;;;;;33.35;29.52;;;12.30;99.90;;;;;;5046901;28;20128;-66
2023/05/15 03:18:42;;;;;;;33.53;30.30;;;12.30;99.90;;;;;;5050758;28;20465;-65
2023/05/15 03:21:07;;;;;;;33.13;29.65;;;12.60;99.90;;;;;;5051027;28;20045;-66
2023/05/15 03:23:33;;;;;;;30.95;27.83;;;12.40;99.90;;;;;;5051012;28;20186;-65
2023/05/15 03:25:58;;;;;;;31.33;28.30;;;12.20;99.90;;;;;;5052257;28;20040;-65
2023/05/15 03:28:24;;;;;;;32.40;29.30;;;12.60;99.90;;;;;;5050986;28;20044;-66
2023/05/15 03:30:49;;;;;;;33.75;30.58;;;12.20;99.90;;;;;;5050734;28;20087;-65
2023/05/15 03:33:15;;;;;;;31.50;28.55;;;12.50;99.90;;;;;;5049545;28;20047;-66
2023/05/15 03:35:41;;;;;;;33.17;29.05;;;12.40;99.90;;;;;;5051722;28;20045;-65
2023/05/15 03:38:06;;;;;;;34.75;31.30;;;12.00;99.90;;;;;;5050239;28;20076;-65
2023/05/15 03:40:32;;;;;;;33.20;29.92;;;12.00;99.90;;;;;;5050510;28;20056;-66
2023/05/15 03:42:57;;;;;;;32.33;29.23;;;12.40;99.90;;;;;;5051579;28;20041;-65
2023/05/15 03:45:23;;;;;;;32.58;29.45;;;12.10;99.90;;;;;;5050784;28;20072;-65
2023/05/15 03:47:48;;;;;;;33.72;29.35;;;12.10;99.90;;;;;;5049802;28;20150;-65
2023/05/15 03:50:14;;;;;;;33.78;30.25;;;11.90;99.90;;;;;;5066663;28;20045;-66
2023/05/15 03:52:40;;;;;;;32.30;29.17;;;12.40;99.90;;;;;;5049716;28;20048;-65
2023/05/15 03:55:06;;;;;;;31.23;28.10;;;11.90;99.90;;;;;;5050374;28;20051;-65
2023/05/15 03:57:34;;;;;;;31.13;28.23;;;12.10;99.90;;;;;;5051585;28;20072;-65
2023/05/15 04:00:02;;;;;;;31.60;28.40;;;11.80;99.90;;;;;;5050339;28;20084;-65
2023/05/15 04:02:28;;;;;;;29.63;26.50;;;11.90;99.90;;;;;;5049070;28;20137;-65
2023/05/15 04:04:53;;;;;;;31.33;27.98;;;11.60;99.90;;;;;;5051621;28;20148;-65
2023/05/15 04:07:19;;;;;;;33.08;29.48;;;12.00;99.90;;;;;;5049990;28;20087;-65
2023/05/15 04:09:44;;;;;;;32.97;29.67;;;11.70;99.90;;;;;;5049929;28;20542;-66
2023/05/15 04:12:10;;;;;;;32.05;28.80;;;11.80;99.90;;;;;;5049634;28;20384;-66
2023/05/15 04:14:35;;;;;;;32.50;29.33;;;11.80;99.90;;;;;;5051406;28;20049;-66
2023/05/15 04:17:01;;;;;;;31.15;28.02;;;12.50;99.90;;;;;;5049425;28;20395;-66
2023/05/15 04:19:26;;;;;;;31.75;28.75;;;11.80;99.90;;;;;;5050769;28;20661;-65
2023/05/15 04:21:52;;;;;;;33.20;29.95;;;12.40;99.90;;;;;;5051440;28;20419;-66
2023/05/15 04:24:17;;;;;;;35.58;32.03;;;12.30;99.90;;;;;;5048623;28;20055;-65
2023/05/15 04:26:43;;;;;;;45.40;40.75;;;12.60;99.90;;;;;;5051245;28;20481;-66
2023/05/15 04:29:09;;;;;;;39.58;35.38;;;12.60;99.90;;;;;;5048497;28;20068;-65
2023/05/15 04:31:35;;;;;;;26.38;23.73;;;12.60;99.90;;;;;;5048753;28;20423;-66
2023/05/15 04:34:00;;;;;;;28.10;25.27;;;12.90;99.90;;;;;;5048730;28;20037;-66
2023/05/15 04:36:26;;;;;;;29.27;26.20;;;13.00;99.90;;;;;;5065798;28;20041;-66
2023/05/15 04:38:52;;;;;;;34.45;30.98;;;12.70;99.90;;;;;;5050569;28;20144;-66
2023/05/15 04:41:17;;;;;;;28.85;25.67;;;13.10;99.90;;;;;;5048922;28;20049;-66
2023/05/15 04:43:43;;;;;;;32.53;29.25;;;12.60;99.90;;;;;;5048612;28;20452;-66
2023/05/15 04:46:08;;;;;;;36.78;33.13;;;13.20;99.90;;;;;;5048750;28;20068;-66
2023/05/15 04:48:34;;;;;;;38.53;34.72;;;12.80;99.90;;;;;;5047893;28;20482;-66
2023/05/15 04:51:00;;;;;;;33.08;29.92;;;12.70;99.90;;;;;;5050763;28;20048;-65
2023/05/15 04:53:25;;;;;;;31.05;28.08;;;15.10;99.90;;;;;;5049865;28;20037;-66
2023/05/15 04:55:51;;;;;;;26.27;23.75;;;13.30;99.90;;;;;;5050458;28;20033;-66
2023/05/15 04:58:17;;;;;;;22.25;19.73;;;13.40;99.90;;;;;;5049014;28;20037;-66
2023/05/15 05:00:42;;;;;;;21.13;18.95;;;13.00;99.90;;;;;;5050199;28;20056;-65
2023/05/15 05:03:08;;;;;;;24.30;22.10;;;13.80;99.90;;;;;;5049580;28;20044;-66
2023/05/15 05:05:33;;;;;;;24.50;22.13;;;13.40;99.90;;;;;;5065969;28;20155;-66
2023/05/15 05:07:59;;;;;;;20.23;18.15;;;13.10;99.90;;;;;;5061688;28;20162;-65
2023/05/15 05:10:24;;;;;;;23.08;19.85;;;13.00;99.90;;;;;;5025828;28;20048;-66
2023/05/15 05:12:50;;;;;;;25.60;23.00;;;13.40;99.90;;;;;;5030516;28;20449;-65
2023/05/15 05:15:15;;;;;;;26.83;24.40;;;13.10;99.90;;;;;;5038959;28;20048;-65
2023/05/15 05:17:41;;;;;;;27.70;24.83;;;13.30;99.90;;;;;;5040611;28;20041;-66
2023/05/15 05:20:09;;;;;;;33.00;30.02;;;13.40;99.90;;;;;;5043879;28;20045;-66
2023/05/15 05:22:35;;;;;;;33.53;30.17;;;13.40;99.90;;;;;;5048608;28;20028;-66
2023/05/15 05:25:01;;;;;;;35.65;32.20;;;13.60;99.90;;;;;;5055141;28;20036;-65
2023/05/15 05:27:26;;;;;;;35.33;31.55;;;13.70;99.90;;;;;;5056441;28;20033;-66
2023/05/15 05:29:53;;;;;;;35.95;32.78;;;13.80;99.90;;;;;;5044962;28;20037;-66
2023/05/15 05:32:18;;;;;;;28.00;25.38;;;13.70;99.90;;;;;;5038885;28;20049;-66
2023/05/15 05:34:44;;;;;;;36.10;32.90;;;13.60;99.90;;;;;;5045316;28;20052;-65
2023/05/15 05:37:09;;;;;;;36.90;33.55;;;13.60;99.90;;;;;;5053979;28;20059;-65
2023/05/15 05:39:35;;;;;;;22.00;19.83;;;13.90;99.90;;;;;;5032394;28;20064;-66
2023/05/15 05:42:00;;;;;;;22.67;20.38;;;13.90;99.90;;;;;;5055647;28;20036;-66
2023/05/15 05:44:26;;;;;;;19.55;17.65;;;14.00;99.90;;;;;;5033457;28;20779;-66
2023/05/15 05:46:52;;;;;;;21.52;19.52;;;13.80;99.90;;;;;;5047861;28;20041;-66
2023/05/15 05:49:17;;;;;;;20.48;18.48;;;13.90;99.90;;;;;;5056467;28;20041;-66
2023/05/15 05:51:45;;;;;;;21.17;19.05;;;13.90;99.90;;;;;;5048019;28;20518;-66
2023/05/15 05:54:13;;;;;;;24.10;21.70;;;13.60;99.90;;;;;;5045847;28;20651;-66
2023/05/15 05:56:40;;;;;;;27.95;25.35;;;13.50;99.90;;;;;;5044228;28;20098;-66
2023/05/15 05:59:05;;;;;;;22.52;20.33;;;13.50;99.90;;;;;;5049639;28;20123;-66
2023/05/15 06:01:31;;;;;;;22.95;20.85;;;13.40;99.90;;;;;;5047853;28;20437;-65
2023/05/15 06:03:57;;;;;;;25.38;22.73;;;13.50;99.90;;;;;;5048362;28;20534;-64
2023/05/15 06:06:22;;;;;;;24.80;22.40;;;13.60;99.90;;;;;;5049397;28;20040;-64
2023/05/15 06:08:48;;;;;;;19.05;17.35;;;13.60;99.90;;;;;;5048128;28;20080;-65
2023/05/15 06:11:13;;;;;;;22.08;19.83;;;13.50;99.90;;;;;;5044980;28;20045;-66
2023/05/15 06:13:39;;;;;;;20.00;17.88;;;13.50;99.90;;;;;;5046219;28;20044;-65
2023/05/15 06:16:05;;;;;;;19.40;17.48;;;13.80;99.90;;;;;;5047578;28;20060;-65
2023/05/15 06:18:31;;;;;;;18.05;16.13;;;13.90;99.90;;;;;;5043508;28;20056;-65
2023/05/15 06:20:59;;;;;;;16.83;15.25;;;14.40;99.90;;;;;;5044973;28;20063;-66
2023/05/15 06:23:25;;;;;;;18.98;15.18;;;14.00;99.90;;;;;;5042034;28;20449;-66
2023/05/15 06:25:51;;;;;;;16.10;14.50;;;14.00;99.90;;;;;;5046332;28;20549;-65
2023/05/15 06:28:16;;;;;;;17.42;15.63;;;14.00;99.90;;;;;;5046130;28;20502;-65
2023/05/15 06:30:42;;;;;;;15.23;13.63;;;14.20;99.90;;;;;;5046951;28;20048;-66
2023/05/15 06:33:07;;;;;;;13.95;12.07;;;14.20;99.90;;;;;;5047962;28;20033;-67
2023/05/15 06:35:33;;;;;;;16.30;14.60;;;15.80;99.90;;;;;;5046594;28;20071;-66
2023/05/15 06:37:59;;;;;;;13.00;10.02;;;14.40;99.90;;;;;;5052429;28;20041;-66
2023/05/15 06:40:24;;;;;;;14.93;12.30;;;14.50;99.90;;;;;;5044485;28;20127;-66
2023/05/15 06:42:50;;;;;;;16.20;14.57;;;14.50;99.90;;;;;;5051268;28;20045;-66
2023/05/15 06:45:15;;;;;;;14.50;12.82;;;14.50;99.90;;;;;;5046860;28;20391;-66
2023/05/15 06:47:41;;;;;;;14.55;13.07;;;14.60;99.90;;;;;;5044471;28;20529;-66
2023/05/15 06:50:07;;;;;;;16.52;10.80;;;14.50;99.90;;;;;;5059170;28;20041;-66
2023/05/15 06:52:32;;;;;;;13.93;12.48;;;14.60;99.90;;;;;;5049013;28;20044;-65
2023/05/15 06:54:58;;;;;;;15.77;13.65;;;14.60;99.90;;;;;;5048069;28;20044;-66
2023/05/15 06:57:23;;;;;;;15.82;13.35;;;14.60;99.90;;;;;;5047599;28;20131;-66
2023/05/15 06:59:49;;;;;;;14.00;11.65;;;14.60;99.90;;;;;;5052251;28;20076;-66
2023/05/15 07:02:14;;;;;;;18.90;16.73;;;14.70;99.90;;;;;;5049997;28;20431;-66
2023/05/15 07:04:40;;;;;;;14.90;12.30;;;14.80;99.90;;;;;;5050989;28;20033;-66
2023/05/15 07:07:06;;;;;;;12.10;10.90;;;15.00;99.90;;;;;;5050663;28;20041;-66
2023/05/15 07:09:31;;;;;;;11.48;9.65;;;15.00;99.90;;;;;;5054425;28;20115;-67
2023/05/15 07:11:57;;;;;;;12.70;10.75;;;15.20;99.90;;;;;;5040501;28;20089;-66
2023/05/15 07:14:22;;;;;;;12.55;9.85;;;15.30;99.90;;;;;;5026519;28;20034;-66
2023/05/15 07:16:48;;;;;;;13.10;9.43;;;15.40;99.90;;;;;;5040049;28;20045;-67
2023/05/15 07:19:17;;;;;;;14.82;11.38;;;15.40;99.90;;;;;;5034829;28;20395;-67
2023/05/15 07:21:43;;;;;;;12.98;11.52;;;17.00;99.90;;;;;;5032504;28;20044;-66
2023/05/15 07:24:08;;;;;;;17.17;11.27;;;15.20;1.00;;;;;;5034467;28;20078;-66
2023/05/15 07:26:35;;;;;;;13.35;10.05;;;15.10;99.90;;;;;;5037020;28;20040;-66
2023/05/15 07:29:00;;;;;;;12.95;10.00;;;15.10;99.90;;;;;;5041815;28;20497;-66
2023/05/15 07:31:26;;;;;;;12.85;11.48;;;15.10;1.00;;;;;;5042532;28;20051;-66
2023/05/15 07:33:51;;;;;;;13.50;10.18;;;15.10;99.90;;;;;;5035655;28;20395;-66
2023/05/15 07:36:17;;;;;;;12.23;10.93;;;15.10;1.00;;;;;;5036242;28;20164;-66
2023/05/15 07:38:43;;;;;;;11.52;9.65;;;15.10;99.90;;;;;;5037092;28;20068;-66
2023/05/15 07:41:08;;;;;;;10.93;9.80;;;15.00;1.00;;;;;;5040729;28;20049;-66
2023/05/15 07:43:35;;;;;;;18.80;14.23;;;15.70;99.90;;;;;;5043079;28;20041;-66
2023/05/15 07:46:00;;;;;;;15.00;12.75;;;14.90;99.90;;;;;;5049648;28;20403;-66
2023/05/15 07:48:26;;;;;;;11.65;10.55;;;14.80;1.00;;;;;;5066289;28;20033;-66
2023/05/15 07:50:52;;;;;;;15.63;14.15;;;14.80;99.90;;;;;;5049903;28;20071;-67
2023/05/15 07:53:18;;;;;;;14.15;12.18;;;14.80;99.90;;;;;;5049161;28;20048;-66
2023/05/15 07:55:45;;;;;;;17.15;13.82;;;14.90;99.90;;;;;;5047338;28;20055;-66
2023/05/15 07:58:10;;;;;;;14.05;12.70;;;14.90;99.90;;;;;;5050619;28;20068;-66
2023/05/15 08:00:36;;;;;;;15.55;14.05;;;14.90;99.90;;;;;;5048927;28;20095;-66
2023/05/15 08:03:02;;;;;;;14.20;12.77;;;14.80;77.80;;;;;;5049201;28;20056;-66
2023/05/15 08:05:28;;;;;;;13.05;11.70;;;14.70;20.80;;;;;;5049212;28;20049;-66
2023/05/15 08:07:54;;;;;;;16.20;14.70;;;14.70;1.00;;;;;;5050622;28;20406;-66
2023/05/15 08:10:20;;;;;;;16.83;15.20;;;14.70;1.00;;;;;;5046963;28;20041;-63
2023/05/15 08:12:46;;;;;;;15.98;13.93;;;14.80;1.00;;;;;;5047792;28;20091;-67
2023/05/15 08:15:12;;;;;;;14.98;13.13;;;14.80;1.00;;;;;;5049095;28;20041;-65
2023/05/15 08:17:38;;;;;;;16.88;14.55;;;14.80;1.00;;;;;;5049100;28;20514;-65
2023/05/15 08:20:04;;;;;;;16.00;14.50;;;14.70;1.00;;;;;;5051123;28;20044;-65
2023/05/15 08:22:30;;;;;;;15.77;14.27;;;14.80;1.00;;;;;;5046844;28;20044;-65
2023/05/15 08:24:56;;;;;;;18.13;13.73;;;14.70;1.00;;;;;;5049238;28;20039;-66
2023/05/15 08:27:22;;;;;;;15.88;14.25;;;14.70;1.00;;;;;;5029162;28;20521;-65
2023/05/15 08:29:48;;;;;;;17.15;15.50;;;14.70;1.00;;;;;;5047913;28;20127;-66
2023/05/15 08:32:13;;;;;;;16.05;14.57;;;14.80;99.90;;;;;;5047884;28;20048;-65
2023/05/15 08:34:39;;;;;;;17.75;15.95;;;14.60;99.90;;;;;;5048440;28;20048;-66
2023/05/15 08:37:07;;;;;;;16.50;14.80;;;14.70;99.90;;;;;;5049577;28;20041;-65
2023/05/15 08:39:33;;;;;;;13.50;12.10;;;14.80;99.90;;;;;;5047779;28;20041;-65
2023/05/15 08:42:04;;;;;;;14.05;12.65;;;14.90;99.90;;;;;;5048644;28;20107;-65
2023/05/15 08:44:30;;;;;;;13.23;11.98;;;14.90;99.90;;;;;;5046513;28;20052;-65
2023/05/15 08:46:57;;;;;;;13.02;11.82;;;14.80;99.90;;;;;;5048264;28;20048;-65
2023/05/15 08:49:54;;;;;;;14.57;12.93;;;14.80;99.90;;;;;;5048370;28;20068;-66
2023/05/15 08:52:20;;;;;;;12.85;11.48;;;14.90;99.90;;;;;;5041686;28;20395;-65
2023/05/15 08:54:46;;;;;;;13.57;12.15;;;15.00;99.90;;;;;;5045702;28;20086;-65
2023/05/15 08:57:13;;;;;;;14.07;11.95;;;15.10;99.90;;;;;;5046807;28;20131;-65
2023/05/15 08:59:39;;;;;;;11.75;10.65;;;15.20;99.90;;;;;;5044562;28;20049;-65
2023/05/15 09:02:04;;;;;;;12.38;11.15;;;15.20;45.80;;;;;;5048249;28;20090;-65
2023/05/15 09:04:30;;;;;;;15.18;12.23;;;15.40;1.00;;;;;;5047211;28;20474;-65
2023/05/15 09:06:59;;;;;;;13.60;11.30;;;15.30;1.00;;;;;;5047247;28;20040;-66
2023/05/15 09:09:26;;;;;;;12.88;11.05;;;15.20;99.90;;;;;;5047652;28;20041;-65
2023/05/15 09:11:53;;;;;;;15.85;14.23;;;15.20;99.90;;;;;;5035514;28;20521;-66
2023/05/15 09:14:18;;;;;;;16.80;13.00;;;15.20;99.90;;;;;;5046406;28;20391;-65
2023/05/15 09:16:45;;;;;;;17.05;13.60;;;15.10;99.90;;;;;;5047304;28;20040;-65
2023/05/15 09:19:12;;;;;;;14.02;12.40;;;15.10;99.90;;;;;;5046724;28;20040;-65
2023/05/15 09:21:38;;;;;;;17.65;11.98;;;15.10;95.10;;;;;;5046993;28;20047;-65
2023/05/15 09:24:24;;;;;;;13.23;10.00;;;15.00;59.70;;;;;;5047561;28;20049;-65
2023/05/15 09:27:05;;;;;;;11.20;10.10;;;15.00;22.80;;;;;;5048012;28;20438;-65
2023/05/15 09:29:32;;;;;;;12.50;10.45;;;15.00;1.00;;;;;;5046774;28;20045;-65
2023/05/15 09:32:06;;;;;;;14.40;11.60;;;15.10;1.00;;;;;;5047079;28;20503;-65
2023/05/15 09:34:37;;;;;;;11.43;10.23;;;15.10;1.00;;;;;;5046668;28;20140;-65
2023/05/15 09:37:05;;;;;;;10.50;9.40;;;15.10;1.00;;;;;;5046098;28;20502;-65
2023/05/15 09:39:32;;;;;;;9.57;8.18;;;15.10;1.00;;;;;;5045929;28;20044;-67
2023/05/15 09:42:13;;;;;;;10.57;9.48;;;15.00;99.90;;;;;;5044465;28;20048;-67
2023/05/15 09:44:43;;;;;;;11.40;8.80;;;14.90;99.90;;;;;;5042452;28;21318;-67
2023/05/15 09:47:10;;;;;;;9.68;8.48;;;14.90;99.90;;;;;;5056553;28;20045;-68
2023/05/15 09:49:37;;;;;;;9.50;7.60;;;15.00;99.90;;;;;;5040928;28;20145;-68
2023/05/15 09:52:06;;;;;;;9.75;8.75;;;14.90;99.90;;;;;;5045354;28;20045;-68
2023/05/15 09:54:31;;;;;;;11.07;8.95;;;14.90;99.90;;;;;;5038922;28;20033;-67
2023/05/15 09:57:10;;;;;;;11.57;10.45;;;14.90;99.90;;;;;;5041756;28;20420;-68
2023/05/15 09:59:43;;;;;;;10.82;9.82;;;14.80;99.90;;;;;;5032685;28;20044;-68
2023/05/15 10:02:21;;;;;;;10.50;9.40;;;14.80;99.90;;;;;;5039141;28;20049;-68
2023/05/15 10:04:54;;;;;;;10.35;9.02;;;15.20;99.90;;;;;;5032807;28;21323;-68
2023/05/15 10:07:31;;;;;;;11.13;10.13;;;14.90;99.90;;;;;;5036979;28;20467;-68
2023/05/15 10:09:57;;;;;;;11.52;9.93;;;14.90;99.90;;;;;;5026211;28;20388;-67
2023/05/15 10:12:24;;;;;;;8.60;7.80;;;14.90;99.90;;;;;;5042718;28;20191;-69
2023/05/15 10:14:51;;;;;;;10.68;9.48;;;15.00;99.90;;;;;;5046170;28;20067;-69
2023/05/15 10:17:20;;;;;;;10.52;9.38;;;15.00;99.90;;;;;;5027712;28;20062;-74
2023/05/15 10:19:49;;;;;;;12.00;10.82;;;15.00;99.90;;;;;;5045748;28;20534;-71
2023/05/15 10:22:28;;;;;;;11.35;10.23;;;15.00;99.90;;;;;;5041427;28;20076;-71
2023/05/15 10:25:02;;;;;;;11.43;10.23;;;15.00;99.90;;;;;;5029714;28;20547;-71
2023/05/15 10:27:29;;;;;;;10.20;9.20;;;14.90;98.00;;;;;;5037856;28;20517;-72
2023/05/15 10:29:56;;;;;;;11.30;9.25;;;14.80;96.70;;;;;;5049559;28;20450;-72
2023/05/15 10:32:24;;;;;;;10.80;9.68;;;15.40;99.90;;;;;;5049761;28;20445;-72
2023/05/15 10:34:51;;;;;;;11.55;10.35;;;14.90;99.90;;;;;;5036068;28;20086;-72
2023/05/15 10:37:17;;;;;;;10.05;9.10;;;15.00;99.90;;;;;;5030488;28;20103;-72
2023/05/15 10:39:45;;;;;;;13.10;10.18;;;15.10;99.90;;;;;;5034772;28;20048;-71
2023/05/15 10:42:12;;;;;;;10.95;8.82;;;15.20;99.90;;;;;;5047698;28;20045;-72
2023/05/15 10:44:37;;;;;;;11.57;9.05;;;15.30;99.90;;;;;;5046359;28;20045;-72
2023/05/15 10:47:04;;;;;;;11.90;10.25;;;15.30;77.10;;;;;;5048704;28;20563;-72
2023/05/15 10:49:30;;;;;;;11.23;10.15;;;15.40;44.10;;;;;;5049412;28;20045;-72
2023/05/15 10:51:59;;;;;;;11.00;9.90;;;15.40;23.70;;;;;;5050069;28;20048;-72
2023/05/15 10:54:25;;;;;;;10.05;9.05;;;15.30;1.00;;;;;;5048021;28;20049;-72
2023/05/15 10:56:50;;;;;;;10.43;9.43;;;15.10;1.00;;;;;;5046804;28;20101;-72
2023/05/15 10:59:16;;;;;;;10.70;9.70;;;15.10;1.00;;;;;;5042759;28;20520;-72
2023/05/15 11:01:42;;;;;;;14.00;12.50;;;15.00;1.00;;;;;;5049360;28;20131;-72
2023/05/15 11:04:16;;;;;;;11.95;10.85;;;15.00;1.00;;;;;;5067075;28;20039;-72
2023/05/15 11:06:47;;;;;;;11.68;10.48;;;15.10;1.00;;;;;;5044540;28;20650;-72
2023/05/15 11:09:24;;;;;;;11.70;9.75;;;15.10;1.00;;;;;;5049824;28;20431;-74
2023/05/15 11:12:04;;;;;;;10.57;9.48;;;15.20;1.00;;;;;;5048245;28;20094;-71
2023/05/15 11:14:33;;;;;;;11.48;10.38;;;15.10;1.00;;;;;;5043903;28;20049;-71
2023/05/15 11:17:10;;;;;;;11.93;10.82;;;15.10;1.00;;;;;;5032755;28;20418;-71
2023/05/15 11:19:48;;;;;;;10.05;9.00;;;15.00;1.00;;;;;;5044081;28;20407;-71
2023/05/15 11:22:13;;;;;;;14.68;13.18;;;14.90;1.00;;;;;;5047083;28;20064;-71
2023/05/15 11:25:01;;;;;;;14.68;12.82;;;15.10;1.00;;;;;;5049101;28;20045;-71
2023/05/15 11:27:44;;;;;;;17.42;13.13;;;15.00;13.60;;;;;;5048581;28;20071;-71
2023/05/15 11:30:16;;;;;;;15.15;13.82;;;15.00;91.50;;;;;;5049666;28;20048;-71
2023/05/15 11:33:07;;;;;;;16.27;14.68;;;15.10;99.90;;;;;;5047856;28;20417;-67
2023/05/15 11:35:44;;;;;;;12.05;10.73;;;15.20;99.90;;;;;;5029608;28;20067;-71
2023/05/15 11:38:10;;;;;;;10.68;9.68;;;15.20;99.90;;;;;;5044641;28;20829;-71
2023/05/15 11:40:57;;;;;;;12.48;11.38;;;15.20;99.90;;;;;;5048434;28;20077;-71
2023/05/15 11:43:24;;;;;;;15.68;14.27;;;15.20;99.90;;;;;;5048600;28;20674;-71
2023/05/15 11:46:12;;;;;;;17.20;15.70;;;15.30;99.90;;;;;;5047201;28;20045;-71
2023/05/15 11:48:43;;;;;;;17.33;15.73;;;15.30;99.90;;;;;;5048232;28;20052;-71
2023/05/15 11:51:20;;;;;;;16.80;15.25;;;15.20;99.90;;;;;;5048631;28;20049;-71
2023/05/15 11:53:46;;;;;;;13.70;12.50;;;15.10;99.90;;;;;;5056464;28;20033;-71
2023/05/15 11:56:23;;;;;;;15.63;14.32;;;15.00;99.90;;;;;;5047474;28;20037;-71
2023/05/15 11:58:54;;;;;;;18.48;16.77;;;14.90;99.90;;;;;;5048584;28;20084;-71
2023/05/15 12:01:20;;;;;;;16.02;14.52;;;14.80;99.90;;;;;;5046071;28;20068;-71
2023/05/15 12:03:46;;;;;;;13.80;12.50;;;13.80;99.90;;;;;;5047927;28;20075;-71
2023/05/15 12:06:12;;;;;;;15.02;13.73;;;14.80;99.90;;;;;;5048238;28;20136;-71
2023/05/15 12:08:37;;;;;;;15.05;13.80;;;14.70;99.90;;;;;;5048263;28;20116;-71
2023/05/15 12:11:04;;;;;;;15.68;14.27;;;14.80;99.90;;;;;;5046891;28;20045;-71
2023/05/15 12:13:31;;;;;;;13.15;11.95;;;14.70;1.00;;;;;;5049856;28;20514;-71
2023/05/15 12:15:57;;;;;;;15.63;14.02;;;14.80;1.00;;;;;;5049029;28;20507;-70
2023/05/15 12:18:23;;;;;;;13.63;12.43;;;14.70;1.00;;;;;;5045473;28;20028;-71
2023/05/15 12:20:51;;;;;;;19.45;17.50;;;14.70;1.00;;;;;;5064408;28;20044;-70
2023/05/15 12:23:19;;;;;;;16.67;15.07;;;14.70;5.90;;;;;;5051882;28;20044;-71
2023/05/15 12:25:46;;;;;;;18.75;17.13;;;14.70;99.90;;;;;;5047973;28;20106;-71
2023/05/15 12:28:12;;;;;;;18.27;16.75;;;14.70;99.90;;;;;;5050369;28;20502;-70
2023/05/15 12:30:38;;;;;;;18.25;16.65;;;14.60;99.90;;;;;;5048182;28;20037;-70